createdAt,value
2022-08-25T00:00:48.437Z,96.66
2022-08-25T00:01:48.430Z,97.33
2022-08-25T00:02:55.950Z,96.75
2022-08-25T00:03:48.419Z,97.81
2022-08-25T00:04:53.674Z,98.20
2022-08-25T00:05:48.480Z,96.66
2022-08-25T00:06:48.406Z,95.79
2022-08-25T00:07:48.403Z,95.79
2022-08-25T00:08:48.397Z,95.98
2022-08-25T00:09:48.398Z,96.08
2022-08-25T00:10:59.854Z,96.56
2022-08-25T00:11:48.376Z,96.56
2022-08-25T00:12:48.373Z,95.69
2022-08-25T00:13:48.364Z,96.08
2022-08-25T00:14:48.365Z,96.75
2022-08-25T00:15:48.425Z,96.66
2022-08-25T00:16:48.358Z,97.14
2022-08-25T00:17:48.346Z,97.57
2022-08-25T00:18:48.345Z,97.28
2022-08-25T00:19:48.331Z,98.15
2022-08-25T00:20:48.886Z,97.96
2022-08-25T00:21:48.325Z,98.24
2022-08-25T00:22:48.325Z,97.96
2022-08-25T00:23:48.310Z,98.24
2022-08-25T00:24:48.305Z,97.28
2022-08-25T00:25:48.299Z,98.72
2022-08-25T00:26:48.295Z,98.72
2022-08-25T00:27:48.288Z,98.63
2022-08-25T00:28:48.283Z,98.15
2022-08-25T00:29:48.276Z,98.82
2022-08-25T00:30:48.374Z,98.82
2022-08-25T00:31:48.265Z,99.02
2022-08-25T00:32:55.183Z,98.82
2022-08-25T00:33:48.254Z,98.97
2022-08-25T00:34:48.253Z,98.77
2022-08-25T00:35:48.242Z,98.87
2022-08-25T00:36:48.236Z,99.06
2022-08-25T00:37:48.230Z,99.54
2022-08-25T00:38:48.225Z,99.93
2022-08-25T00:39:48.322Z,99.99
2022-08-25T00:40:48.214Z,99.99
2022-08-25T00:41:48.207Z,99.99
2022-08-25T00:42:48.201Z,99.99
2022-08-25T00:43:48.194Z,99.99
2022-08-25T00:44:48.191Z,99.99
2022-08-25T00:45:48.418Z,99.99
2022-08-25T00:46:48.179Z,99.99
2022-08-25T00:47:48.170Z,99.99
2022-08-25T00:48:48.177Z,99.99
2022-08-25T00:49:48.159Z,99.99
2022-08-25T00:50:48.155Z,99.99
2022-08-25T00:51:48.146Z,99.99
2022-08-25T00:52:48.142Z,99.99
2022-08-25T00:53:48.136Z,99.99
2022-08-25T00:54:48.131Z,99.99
2022-08-25T00:55:48.123Z,99.99
2022-08-25T00:56:48.120Z,99.99
2022-08-25T00:57:48.112Z,99.99
2022-08-25T00:58:48.112Z,99.99
2022-08-25T00:59:48.106Z,99.99
2022-08-25T01:00:48.097Z,99.99
2022-08-25T01:01:48.197Z,99.99
2022-08-25T01:02:48.148Z,99.99
2022-08-25T01:03:48.076Z,99.99
2022-08-25T01:04:49.062Z,99.99
2022-08-25T01:05:48.065Z,99.99
2022-08-25T01:06:48.060Z,99.99
2022-08-25T01:07:48.058Z,99.99
2022-08-25T01:08:48.048Z,99.99
2022-08-25T01:09:48.048Z,99.99
2022-08-25T01:10:48.038Z,99.99
2022-08-25T01:11:48.028Z,99.99
2022-08-25T01:12:48.023Z,99.99
2022-08-25T01:13:48.017Z,99.99
2022-08-25T01:14:48.013Z,99.99
2022-08-25T01:15:48.072Z,99.99
2022-08-25T01:16:51.266Z,99.99
2022-08-25T01:17:47.992Z,99.99
2022-08-25T01:18:48.000Z,99.99
2022-08-25T01:19:47.979Z,99.99
2022-08-25T01:20:47.974Z,99.99
2022-08-25T01:21:47.966Z,99.99
2022-08-25T01:22:55.331Z,99.99
2022-08-25T01:23:47.956Z,99.99
2022-08-25T01:24:47.950Z,99.99
2022-08-25T01:25:47.944Z,99.99
2022-08-25T01:26:47.937Z,99.99
2022-08-25T01:27:47.931Z,99.99
2022-08-25T01:28:47.926Z,99.99
2022-08-25T01:29:47.922Z,99.99
2022-08-25T01:30:47.961Z,99.99
2022-08-25T01:31:47.905Z,99.99
2022-08-25T01:32:47.900Z,99.99
2022-08-25T01:33:47.893Z,99.99
2022-08-25T01:34:47.889Z,99.99
2022-08-25T01:35:47.882Z,99.99
2022-08-25T01:36:47.877Z,99.99
2022-08-25T01:37:47.871Z,99.99
2022-08-25T01:38:47.863Z,99.99
2022-08-25T01:39:47.983Z,99.99
2022-08-25T01:40:47.853Z,99.99
2022-08-25T01:41:47.844Z,99.99
2022-08-25T01:42:47.840Z,99.99
2022-08-25T01:43:47.832Z,99.99
2022-08-25T01:44:47.826Z,99.99
2022-08-25T01:45:48.051Z,99.99
2022-08-25T01:46:47.814Z,99.99
2022-08-25T01:47:47.803Z,99.99
2022-08-25T01:48:47.802Z,99.99
2022-08-25T01:49:47.792Z,99.99
2022-08-25T01:50:47.788Z,99.99
2022-08-25T01:51:47.779Z,99.99
2022-08-25T01:52:47.774Z,99.99
2022-08-25T01:53:47.768Z,99.99
2022-08-25T01:54:47.962Z,99.99
2022-08-25T01:55:47.753Z,99.99
2022-08-25T01:56:47.748Z,99.99
2022-08-25T01:57:47.739Z,99.99
2022-08-25T01:58:47.736Z,99.99
2022-08-25T01:59:47.727Z,99.99
2022-08-25T02:00:47.723Z,99.99
2022-08-25T02:01:47.744Z,99.99
2022-08-25T02:02:47.734Z,99.99
2022-08-25T02:03:48.035Z,99.99
2022-08-25T02:04:47.699Z,99.99
2022-08-25T02:05:48.047Z,99.99
2022-08-25T02:06:47.684Z,99.99
2022-08-25T02:07:47.674Z,99.99
2022-08-25T02:08:47.672Z,99.99
2022-08-25T02:09:47.712Z,99.99
2022-08-25T02:10:47.658Z,99.99
2022-08-25T02:11:47.649Z,99.99
2022-08-25T02:12:47.646Z,99.99
2022-08-25T02:13:47.637Z,99.99
2022-08-25T02:14:47.632Z,99.99
2022-08-25T02:15:47.630Z,99.99
2022-08-25T02:16:47.745Z,99.99
2022-08-25T02:17:47.612Z,99.99
2022-08-25T02:18:47.604Z,99.99
2022-08-25T02:19:47.598Z,99.99
2022-08-25T02:20:47.591Z,99.99
2022-08-25T02:21:47.584Z,99.99
2022-08-25T02:22:48.991Z,99.99
2022-08-25T02:23:47.570Z,99.99
2022-08-25T02:24:47.567Z,99.99
2022-08-25T02:25:47.557Z,99.99
2022-08-25T02:26:47.552Z,99.99
2022-08-25T02:27:47.544Z,99.99
2022-08-25T02:28:47.539Z,99.99
2022-08-25T02:29:47.530Z,99.99
2022-08-25T02:30:47.569Z,99.99
2022-08-25T02:31:47.516Z,99.99
2022-08-25T02:32:47.519Z,99.99
2022-08-25T02:33:47.505Z,99.99
2022-08-25T02:34:47.498Z,99.99
2022-08-25T02:35:47.493Z,99.99
2022-08-25T02:36:47.486Z,99.99
2022-08-25T02:37:47.477Z,99.99
2022-08-25T02:38:47.470Z,99.99
2022-08-25T02:39:47.510Z,99.99
2022-08-25T02:40:47.458Z,99.99
2022-08-25T02:41:47.449Z,99.99
2022-08-25T02:42:47.444Z,99.99
2022-08-25T02:43:47.436Z,99.99
2022-08-25T02:44:47.430Z,99.99
2022-08-25T02:45:47.530Z,99.99
2022-08-25T02:46:47.418Z,99.99
2022-08-25T02:47:47.408Z,99.99
2022-08-25T02:48:47.404Z,99.99
2022-08-25T02:49:47.394Z,99.99
2022-08-25T02:50:47.402Z,99.99
2022-08-25T02:51:47.381Z,99.99
2022-08-25T02:52:47.376Z,99.99
2022-08-25T02:53:47.366Z,99.99
2022-08-25T02:54:47.363Z,99.99
2022-08-25T02:55:47.355Z,99.99
2022-08-25T02:56:47.347Z,99.99
2022-08-25T02:57:47.340Z,99.99
2022-08-25T02:58:47.340Z,99.99
2022-08-25T02:59:47.328Z,99.99
2022-08-25T03:00:47.394Z,99.99
2022-08-25T03:01:47.312Z,99.99
2022-08-25T03:02:47.306Z,99.99
2022-08-25T03:03:47.406Z,99.99
2022-08-25T03:04:47.473Z,99.99
2022-08-25T03:05:47.284Z,99.99
2022-08-25T03:06:47.282Z,99.99
2022-08-25T03:07:47.269Z,99.99
2022-08-25T03:08:47.275Z,99.99
2022-08-25T03:09:47.257Z,99.99
2022-08-25T03:10:47.404Z,99.99
2022-08-25T03:11:47.242Z,99.99
2022-08-25T03:12:47.286Z,99.99
2022-08-25T03:13:47.228Z,99.99
2022-08-25T03:14:47.223Z,99.99
2022-08-25T03:15:47.313Z,99.99
2022-08-25T03:16:47.282Z,99.99
2022-08-25T03:17:47.200Z,99.99
2022-08-25T03:18:47.194Z,99.99
2022-08-25T03:19:47.184Z,99.99
2022-08-25T03:20:47.181Z,99.99
2022-08-25T03:21:47.171Z,99.99
2022-08-25T03:22:47.165Z,99.99
2022-08-25T03:23:47.156Z,99.99
2022-08-25T03:24:47.152Z,99.99
2022-08-25T03:25:47.145Z,99.99
2022-08-25T03:26:47.147Z,99.99
2022-08-25T03:27:47.127Z,99.99
2022-08-25T03:28:47.131Z,99.99
2022-08-25T03:29:47.120Z,99.99
2022-08-25T03:30:47.114Z,99.99
2022-08-25T03:31:47.181Z,99.99
2022-08-25T03:32:47.094Z,99.99
2022-08-25T03:33:47.086Z,99.99
2022-08-25T03:34:47.079Z,99.99
2022-08-25T03:35:47.070Z,99.99
2022-08-25T03:36:47.066Z,99.99
2022-08-25T03:37:47.058Z,99.99
2022-08-25T03:38:47.052Z,99.99
2022-08-25T03:39:47.083Z,99.99
2022-08-25T03:40:47.037Z,99.99
2022-08-25T03:41:47.027Z,99.99
2022-08-25T03:42:47.021Z,99.99
2022-08-25T03:43:48.174Z,99.99
2022-08-25T03:44:47.009Z,99.99
2022-08-25T03:45:47.060Z,99.99
2022-08-25T03:46:46.992Z,99.99
2022-08-25T03:47:46.983Z,99.99
2022-08-25T03:48:46.979Z,99.99
2022-08-25T03:49:46.975Z,99.99
2022-08-25T03:50:51.577Z,99.99
2022-08-25T03:51:46.963Z,99.99
2022-08-25T03:52:46.950Z,99.99
2022-08-25T03:53:46.944Z,99.99
2022-08-25T03:54:46.935Z,99.99
2022-08-25T03:55:46.926Z,99.99
2022-08-25T03:56:46.922Z,99.99
2022-08-25T03:57:46.911Z,99.99
2022-08-25T03:58:46.907Z,99.99
2022-08-25T03:59:46.897Z,99.99
2022-08-25T04:00:46.977Z,99.99
2022-08-25T04:01:50.253Z,99.99
2022-08-25T04:02:46.955Z,99.99
2022-08-25T04:03:46.868Z,99.99
2022-08-25T04:04:46.862Z,99.99
2022-08-25T04:05:46.855Z,99.99
2022-08-25T04:06:46.847Z,99.99
2022-08-25T04:07:46.838Z,99.99
2022-08-25T04:08:46.935Z,99.99
2022-08-25T04:09:46.825Z,99.99
2022-08-25T04:10:46.819Z,99.99
2022-08-25T04:11:46.810Z,99.99
2022-08-25T04:12:46.806Z,99.99
2022-08-25T04:13:46.803Z,99.99
2022-08-25T04:14:46.840Z,99.99
2022-08-25T04:15:46.781Z,99.99
2022-08-25T04:16:46.911Z,99.99
2022-08-25T04:17:46.770Z,99.99
2022-08-25T04:18:46.759Z,99.99
2022-08-25T04:19:46.753Z,99.99
2022-08-25T04:20:47.045Z,99.99
2022-08-25T04:21:46.743Z,99.99
2022-08-25T04:22:46.728Z,99.99
2022-08-25T04:23:46.724Z,99.99
2022-08-25T04:24:46.714Z,99.99
2022-08-25T04:25:46.710Z,99.99
2022-08-25T04:26:46.699Z,99.99
2022-08-25T04:27:46.695Z,99.99
2022-08-25T04:28:46.685Z,99.99
2022-08-25T04:29:46.681Z,99.99
2022-08-25T04:30:51.427Z,99.99
2022-08-25T04:31:46.742Z,99.99
2022-08-25T04:32:46.757Z,99.99
2022-08-25T04:33:46.651Z,99.99
2022-08-25T04:34:46.640Z,99.99
2022-08-25T04:35:46.636Z,99.99
2022-08-25T04:36:46.626Z,99.99
2022-08-25T04:37:46.623Z,99.99
2022-08-25T04:38:46.612Z,99.99
2022-08-25T04:39:46.689Z,99.99
2022-08-25T04:40:46.597Z,99.99
2022-08-25T04:41:46.593Z,99.99
2022-08-25T04:42:48.212Z,99.99
2022-08-25T04:43:46.577Z,99.99
2022-08-25T04:44:46.568Z,99.99
2022-08-25T04:45:46.633Z,99.99
2022-08-25T04:46:46.555Z,99.99
2022-08-25T04:47:46.548Z,99.99
2022-08-25T04:48:46.539Z,99.99
2022-08-25T04:49:46.533Z,99.99
2022-08-25T04:50:46.527Z,99.99
2022-08-25T04:51:46.518Z,99.99
2022-08-25T04:52:46.509Z,99.99
2022-08-25T04:53:46.504Z,99.99
2022-08-25T04:54:46.492Z,99.99
2022-08-25T04:55:46.489Z,99.99
2022-08-25T04:56:46.482Z,99.99
2022-08-25T04:57:46.475Z,99.99
2022-08-25T04:58:46.464Z,99.99
2022-08-25T04:59:46.459Z,99.99
2022-08-25T05:00:46.498Z,99.99
2022-08-25T05:01:46.444Z,99.99
2022-08-25T05:02:46.434Z,99.99
2022-08-25T05:03:46.487Z,99.99
2022-08-25T05:04:46.449Z,99.99
2022-08-25T05:05:46.415Z,99.99
2022-08-25T05:06:46.409Z,99.99
2022-08-25T05:07:46.400Z,99.99
2022-08-25T05:08:46.393Z,99.99
2022-08-25T05:09:46.386Z,99.99
2022-08-25T05:10:46.376Z,99.99
2022-08-25T05:11:46.370Z,99.99
2022-08-25T05:12:46.360Z,99.99
2022-08-25T05:13:51.345Z,99.99
2022-08-25T05:14:46.347Z,99.99
2022-08-25T05:15:46.341Z,99.99
2022-08-25T05:16:46.379Z,99.99
2022-08-25T05:17:46.330Z,99.99
2022-08-25T05:18:46.317Z,99.99
2022-08-25T05:19:46.314Z,99.99
2022-08-25T05:20:46.304Z,99.99
2022-08-25T05:21:46.303Z,99.99
2022-08-25T05:22:46.292Z,99.99
2022-08-25T05:23:46.300Z,99.99
2022-08-25T05:24:46.276Z,99.99
2022-08-25T05:25:46.272Z,99.99
2022-08-25T05:26:46.262Z,99.99
2022-08-25T05:27:46.258Z,99.99
2022-08-25T05:28:46.250Z,99.99
2022-08-25T05:29:46.246Z,99.99
2022-08-25T05:30:46.285Z,99.99
2022-08-25T05:31:50.437Z,99.99
2022-08-25T05:32:46.224Z,99.99
2022-08-25T05:33:46.221Z,99.99
2022-08-25T05:34:46.210Z,99.99
2022-08-25T05:35:46.256Z,99.99
2022-08-25T05:36:46.199Z,99.64
2022-08-25T05:37:46.196Z,99.16
2022-08-25T05:38:46.185Z,99.99
2022-08-25T05:39:46.199Z,99.93
2022-08-25T05:40:46.173Z,99.93
2022-08-25T05:41:46.178Z,99.45
2022-08-25T05:42:46.163Z,99.99
2022-08-25T05:43:46.159Z,99.99
2022-08-25T05:44:46.150Z,99.74
2022-08-25T05:45:46.179Z,98.68
2022-08-25T05:46:46.138Z,99.93
2022-08-25T05:47:46.135Z,99.07
2022-08-25T05:48:46.125Z,98.92
2022-08-25T05:49:46.123Z,99.02
2022-08-25T05:50:46.115Z,98.73
2022-08-25T05:51:46.114Z,98.63
2022-08-25T05:52:46.104Z,98.25
2022-08-25T05:53:46.102Z,97.86
2022-08-25T05:54:46.093Z,96.70
2022-08-25T05:55:46.088Z,96.41
2022-08-25T05:56:46.083Z,96.94
2022-08-25T05:57:46.079Z,96.66
2022-08-25T05:58:46.070Z,96.70
2022-08-25T05:59:46.068Z,96.17
2022-08-25T06:00:46.128Z,96.17
2022-08-25T06:01:46.056Z,96.56
2022-08-25T06:02:46.049Z,95.88
2022-08-25T06:03:46.068Z,95.59
2022-08-25T06:04:46.041Z,95.50
2022-08-25T06:05:46.037Z,96.08
2022-08-25T06:06:46.030Z,95.21
2022-08-25T06:07:46.025Z,95.11
2022-08-25T06:08:46.023Z,95.69
2022-08-25T06:09:46.018Z,95.11
2022-08-25T06:10:46.008Z,95.25
2022-08-25T06:11:46.006Z,95.74
2022-08-25T06:12:45.999Z,95.64
2022-08-25T06:13:45.996Z,95.93
2022-08-25T06:14:45.988Z,96.22
2022-08-25T06:15:45.987Z,95.54
2022-08-25T06:16:46.027Z,94.87
2022-08-25T06:17:45.977Z,94.38
2022-08-25T06:18:45.969Z,93.52
2022-08-25T06:19:45.967Z,93.90
2022-08-25T06:20:45.961Z,93.80
2022-08-25T06:21:45.959Z,92.84
2022-08-25T06:22:46.000Z,92.65
2022-08-25T06:23:45.948Z,92.84
2022-08-25T06:24:45.941Z,92.65
2022-08-25T06:25:45.938Z,92.50
2022-08-25T06:26:45.930Z,92.60
2022-08-25T06:27:45.929Z,92.60
2022-08-25T06:28:45.924Z,92.41
2022-08-25T06:29:46.126Z,92.89
2022-08-25T06:30:45.914Z,92.11
2022-08-25T06:31:46.052Z,90.86
2022-08-25T06:32:45.906Z,92.50
2022-08-25T06:33:45.903Z,91.09
2022-08-25T06:34:45.900Z,90.95
2022-08-25T06:35:45.893Z,90.91
2022-08-25T06:36:45.888Z,90.61
2022-08-25T06:37:45.886Z,90.52
2022-08-25T06:38:45.878Z,90.42
2022-08-25T06:39:45.940Z,89.65
2022-08-25T06:40:45.871Z,89.75
2022-08-25T06:41:45.870Z,89.26
2022-08-25T06:42:45.912Z,90.52
2022-08-25T06:43:49.883Z,89.94
2022-08-25T06:44:45.854Z,89.55
2022-08-25T06:45:45.852Z,89.36
2022-08-25T06:46:45.969Z,89.59
2022-08-25T06:47:45.850Z,89.11
2022-08-25T06:48:45.837Z,88.15
2022-08-25T06:49:45.853Z,89.31
2022-08-25T06:50:45.830Z,88.92
2022-08-25T06:51:45.844Z,88.73
2022-08-25T06:52:45.822Z,88.43
2022-08-25T06:53:45.821Z,88.05
2022-08-25T06:54:45.814Z,88.73
2022-08-25T06:55:45.812Z,89.01
2022-08-25T06:56:45.807Z,87.99
2022-08-25T06:57:45.807Z,88.19
2022-08-25T06:58:45.800Z,87.51
2022-08-25T06:59:45.799Z,87.41
2022-08-25T07:00:45.856Z,86.25
2022-08-25T07:01:45.841Z,86.16
2022-08-25T07:02:45.796Z,86.55
2022-08-25T07:03:45.787Z,86.25
2022-08-25T07:04:45.778Z,86.06
2022-08-25T07:05:45.776Z,85.72
2022-08-25T07:06:45.770Z,86.30
2022-08-25T07:07:45.769Z,86.59
2022-08-25T07:08:45.764Z,86.40
2022-08-25T07:09:45.765Z,86.69
2022-08-25T07:10:48.116Z,86.10
2022-08-25T07:11:45.766Z,85.52
2022-08-25T07:12:45.750Z,85.14
2022-08-25T07:13:45.750Z,85.87
2022-08-25T07:14:58.033Z,86.25
2022-08-25T07:15:45.795Z,86.16
2022-08-25T07:16:49.369Z,86.06
2022-08-25T07:17:45.737Z,86.25
2022-08-25T07:18:45.731Z,86.06
2022-08-25T07:19:45.731Z,85.29
2022-08-25T07:20:45.725Z,86.06
2022-08-25T07:21:45.740Z,86.83
2022-08-25T07:22:45.717Z,86.25
2022-08-25T07:23:45.715Z,87.03
2022-08-25T07:24:45.711Z,85.77
2022-08-25T07:25:45.759Z,85.91
2022-08-25T07:26:45.702Z,85.52
2022-08-25T07:27:45.703Z,85.14
2022-08-25T07:28:47.225Z,85.24
2022-08-25T07:29:45.697Z,84.66
2022-08-25T07:30:45.690Z,84.84
2022-08-25T07:31:45.731Z,84.17
2022-08-25T07:32:45.685Z,84.60
2022-08-25T07:33:45.684Z,85.18
2022-08-25T07:34:45.680Z,84.11
2022-08-25T07:35:45.678Z,84.79
2022-08-25T07:36:45.673Z,84.25
2022-08-25T07:37:49.259Z,83.58
2022-08-25T07:38:45.665Z,84.16
2022-08-25T07:39:45.716Z,83.28
2022-08-25T07:40:45.659Z,83.38
2022-08-25T07:41:45.659Z,83.67
2022-08-25T07:42:45.972Z,83.28
2022-08-25T07:43:45.651Z,83.13
2022-08-25T07:44:45.649Z,82.94
2022-08-25T07:45:49.147Z,82.75
2022-08-25T07:47:45.639Z,82.07
2022-08-25T07:48:53.281Z,80.80
2022-08-25T07:49:45.636Z,81.39
2022-08-25T07:50:45.633Z,80.71
2022-08-25T07:52:03.975Z,80.62
2022-08-25T07:52:45.629Z,81.13
2022-08-25T07:53:45.623Z,81.04
2022-08-25T07:54:45.623Z,80.75
2022-08-25T07:55:47.291Z,81.23
2022-08-25T07:56:45.619Z,81.62
2022-08-25T07:57:45.613Z,81.13
2022-08-25T07:58:45.612Z,79.93
2022-08-25T07:59:45.609Z,80.75
2022-08-25T08:00:45.610Z,81.13
2022-08-25T08:01:45.691Z,80.36
2022-08-25T08:02:45.651Z,79.97
2022-08-25T08:03:50.680Z,79.49
2022-08-25T08:04:45.599Z,79.68
2022-08-25T08:05:45.595Z,79.63
2022-08-25T08:06:45.610Z,80.21
2022-08-25T08:07:45.590Z,80.30
2022-08-25T08:08:45.590Z,79.24
2022-08-25T08:09:45.586Z,79.24
2022-08-25T08:11:04.365Z,79.43
2022-08-25T08:11:45.782Z,79.04
2022-08-25T08:12:45.600Z,78.94
2022-08-25T08:13:45.579Z,78.66
2022-08-25T08:14:46.210Z,78.75
2022-08-25T08:15:45.602Z,78.59
2022-08-25T08:16:45.574Z,78.36
2022-08-25T08:17:45.571Z,78.69
2022-08-25T08:18:45.570Z,79.08
2022-08-25T08:19:45.566Z,78.50
2022-08-25T08:20:45.569Z,78.40
2022-08-25T08:21:45.564Z,78.40
2022-08-25T08:22:45.562Z,78.02
2022-08-25T08:23:45.559Z,78.11
2022-08-25T08:24:54.787Z,77.04
2022-08-25T08:25:45.554Z,77.82
2022-08-25T08:26:57.718Z,77.62
2022-08-25T08:27:45.557Z,77.28
2022-08-25T08:28:45.652Z,77.37
2022-08-25T08:29:45.555Z,76.89
2022-08-25T08:30:53.635Z,76.95
2022-08-25T08:31:48.542Z,76.98
2022-08-25T08:33:08.842Z,77.18
2022-08-25T08:33:45.545Z,76.98
2022-08-25T08:34:45.592Z,76.46
2022-08-25T08:35:45.540Z,77.08
2022-08-25T08:36:45.607Z,77.37
2022-08-25T08:37:45.537Z,77.76
2022-08-25T08:38:45.534Z,77.86
2022-08-25T08:39:45.608Z,77.28
2022-08-25T08:40:45.530Z,77.28
2022-08-25T08:42:11.200Z,76.11
2022-08-25T08:42:46.936Z,76.64
2022-08-25T08:43:45.529Z,76.34
2022-08-25T08:44:45.534Z,76.25
2022-08-25T08:45:45.526Z,76.34
2022-08-25T08:46:45.559Z,76.11
2022-08-25T08:47:45.530Z,76.40
2022-08-25T08:48:45.519Z,75.57
2022-08-25T08:49:45.520Z,75.95
2022-08-25T08:50:45.515Z,75.85
2022-08-25T08:51:45.905Z,76.01
2022-08-25T08:52:45.538Z,76.05
2022-08-25T08:53:45.527Z,76.79
2022-08-25T08:54:45.536Z,76.34
2022-08-25T08:55:50.538Z,76.44
2022-08-25T08:56:48.038Z,76.83
2022-08-25T08:57:45.571Z,75.57
2022-08-25T08:58:45.507Z,74.79
2022-08-25T08:59:45.524Z,74.40
2022-08-25T09:00:51.840Z,75.02
2022-08-25T09:01:45.681Z,74.92
2022-08-25T09:02:51.946Z,74.82
2022-08-25T09:03:45.515Z,74.44
2022-08-25T09:04:45.509Z,74.05
2022-08-25T09:05:46.827Z,74.44
2022-08-25T09:06:45.495Z,73.85
2022-08-25T09:07:45.496Z,73.08
2022-08-25T09:08:45.494Z,73.46
2022-08-25T09:09:45.496Z,73.27
2022-08-25T09:10:45.491Z,73.11
2022-08-25T09:11:45.492Z,73.11
2022-08-25T09:12:48.218Z,72.72
2022-08-25T09:13:45.513Z,72.82
2022-08-25T09:14:45.489Z,72.78
2022-08-25T09:15:45.501Z,72.98
2022-08-25T09:16:45.533Z,73.37
2022-08-25T09:17:45.485Z,73.21
2022-08-25T09:18:50.886Z,72.14
2022-08-25T09:19:45.488Z,72.01
2022-08-25T09:20:45.481Z,72.78
2022-08-25T09:21:45.482Z,72.78
2022-08-25T09:22:46.768Z,72.78
2022-08-25T09:23:45.481Z,72.78
2022-08-25T09:24:45.478Z,71.91
2022-08-25T09:25:54.050Z,71.52
2022-08-25T09:26:45.475Z,72.49
2022-08-25T09:27:45.477Z,71.42
2022-08-25T09:28:45.474Z,71.91
2022-08-25T09:29:45.476Z,71.81
2022-08-25T09:30:45.477Z,71.46
2022-08-25T09:31:45.566Z,70.87
2022-08-25T09:32:49.041Z,70.68
2022-08-25T09:33:45.473Z,70.97
2022-08-25T09:34:45.469Z,71.46
2022-08-25T09:35:45.471Z,70.97
2022-08-25T09:36:45.483Z,71.17
2022-08-25T09:37:45.520Z,70.58
2022-08-25T09:38:45.467Z,69.74
2022-08-25T09:39:45.535Z,70.00
2022-08-25T09:40:45.465Z,69.84
2022-08-25T09:41:45.466Z,70.04
2022-08-25T09:42:45.477Z,69.65
2022-08-25T09:43:45.464Z,69.74
2022-08-25T09:44:45.463Z,70.13
2022-08-25T09:45:45.464Z,70.32
2022-08-25T09:46:45.543Z,69.84
2022-08-25T09:47:45.461Z,69.74
2022-08-25T09:48:45.459Z,70.52
2022-08-25T09:49:45.462Z,69.55
2022-08-25T09:50:45.717Z,69.55
2022-08-25T09:51:45.460Z,69.55
2022-08-25T09:52:45.457Z,69.84
2022-08-25T09:53:45.459Z,69.45
2022-08-25T09:54:47.642Z,69.65
2022-08-25T09:55:45.456Z,69.10
2022-08-25T09:56:45.457Z,69.00
2022-08-25T09:57:45.457Z,69.20
2022-08-25T09:58:45.454Z,68.80
2022-08-25T09:59:57.463Z,68.61
2022-08-25T10:00:45.454Z,68.22
2022-08-25T10:01:45.519Z,67.44
2022-08-25T10:02:45.451Z,68.22
2022-08-25T10:03:45.454Z,67.77
2022-08-25T10:04:45.476Z,67.96
2022-08-25T10:05:45.454Z,67.28
2022-08-25T10:06:45.450Z,66.99
2022-08-25T10:07:45.452Z,66.89
2022-08-25T10:08:45.458Z,67.80
2022-08-25T10:09:45.453Z,66.89
2022-08-25T10:10:45.448Z,66.11
2022-08-25T10:11:45.451Z,66.86
2022-08-25T10:12:45.449Z,67.73
2022-08-25T10:13:45.452Z,67.73
2022-08-25T10:14:45.450Z,68.09
2022-08-25T10:15:45.488Z,68.19
2022-08-25T10:16:46.863Z,68.09
2022-08-25T10:17:45.451Z,68.71
2022-08-25T10:18:45.446Z,67.93
2022-08-25T10:19:45.449Z,67.05
2022-08-25T10:20:45.447Z,66.56
2022-08-25T10:22:45.448Z,65.20
2022-08-25T10:23:45.448Z,65.79
2022-08-25T10:24:45.447Z,65.82
2022-08-25T10:25:56.734Z,64.75
2022-08-25T10:26:45.447Z,65.14
2022-08-25T10:27:45.444Z,64.94
2022-08-25T10:28:45.448Z,64.49
2022-08-25T10:29:45.447Z,64.39
2022-08-25T10:30:45.582Z,64.00
2022-08-25T10:31:45.445Z,64.78
2022-08-25T10:32:45.496Z,64.78
2022-08-25T10:33:45.445Z,64.59
2022-08-25T10:34:45.446Z,64.39
2022-08-25T10:35:45.457Z,64.49
2022-08-25T10:36:47.186Z,64.62
2022-08-25T10:37:45.444Z,64.42
2022-08-25T10:38:45.447Z,63.84
2022-08-25T10:39:45.530Z,63.93
2022-08-25T10:40:45.519Z,63.64
2022-08-25T10:41:45.445Z,63.64
2022-08-25T10:42:45.449Z,63.45
2022-08-25T10:43:45.446Z,63.15
2022-08-25T10:44:45.451Z,62.79
2022-08-25T10:45:45.649Z,62.79
2022-08-25T10:46:45.516Z,62.76
2022-08-25T10:47:45.449Z,62.79
2022-08-25T10:48:45.449Z,63.18
2022-08-25T10:49:45.446Z,62.82
2022-08-25T10:50:45.745Z,63.12
2022-08-25T10:51:45.447Z,63.51
2022-08-25T10:52:45.456Z,62.82
2022-08-25T10:53:45.449Z,62.34
2022-08-25T10:54:45.451Z,61.56
2022-08-25T10:55:45.449Z,61.76
2022-08-25T10:56:45.453Z,61.66
2022-08-25T10:57:45.452Z,62.24
2022-08-25T10:58:45.506Z,62.53
2022-08-25T10:59:45.451Z,62.44
2022-08-25T11:00:46.534Z,61.85
2022-08-25T11:01:45.546Z,61.17
2022-08-25T11:02:45.455Z,61.66
2022-08-25T11:03:45.456Z,61.36
2022-08-25T11:04:45.528Z,61.56
2022-08-25T11:05:45.505Z,61.85
2022-08-25T11:06:45.459Z,62.15
2022-08-25T11:07:45.456Z,62.56
2022-08-25T11:08:45.461Z,61.59
2022-08-25T11:09:45.460Z,61.79
2022-08-25T11:10:45.462Z,62.47
2022-08-25T11:11:45.460Z,61.79
2022-08-25T11:12:45.467Z,61.33
2022-08-25T11:13:45.461Z,61.23
2022-08-25T11:14:45.464Z,60.74
2022-08-25T11:16:00.175Z,60.74
2022-08-25T11:16:45.524Z,60.64
2022-08-25T11:17:45.465Z,60.16
2022-08-25T11:18:45.468Z,60.25
2022-08-25T11:19:45.465Z,60.35
2022-08-25T11:20:45.470Z,60.45
2022-08-25T11:21:45.468Z,59.86
2022-08-25T11:22:45.471Z,58.40
2022-08-25T11:23:45.471Z,58.30
2022-08-25T11:24:45.475Z,59.67
2022-08-25T11:25:45.473Z,58.98
2022-08-25T11:26:45.475Z,59.11
2022-08-25T11:27:45.476Z,58.33
2022-08-25T11:28:45.479Z,58.52
2022-08-25T11:29:45.681Z,58.42
2022-08-25T11:30:46.384Z,58.62
2022-08-25T11:31:52.187Z,58.33
2022-08-25T11:32:45.485Z,58.13
2022-08-25T11:33:45.485Z,58.33
2022-08-25T11:34:45.688Z,58.23
2022-08-25T11:35:45.492Z,58.52
2022-08-25T11:36:45.805Z,57.84
2022-08-25T11:37:45.489Z,57.93
2022-08-25T11:39:45.572Z,58.16
2022-08-25T11:40:45.493Z,58.06
2022-08-25T11:41:45.497Z,57.77
2022-08-25T11:43:45.498Z,57.06
2022-08-25T11:44:53.245Z,57.54
2022-08-25T11:45:45.712Z,57.45
2022-08-25T11:46:45.504Z,56.57
2022-08-25T11:47:45.503Z,56.76
2022-08-25T11:48:45.506Z,55.86
2022-08-25T11:49:45.507Z,56.05
2022-08-25T11:50:45.530Z,54.98
2022-08-25T11:51:45.507Z,54.88
2022-08-25T11:52:45.513Z,55.18
2022-08-25T11:53:45.713Z,54.59
2022-08-25T11:54:45.712Z,53.71
2022-08-25T11:55:45.513Z,55.37
2022-08-25T11:56:45.720Z,55.66
2022-08-25T11:57:45.518Z,55.76
2022-08-25T11:58:45.522Z,55.83
2022-08-25T11:59:45.522Z,54.46
2022-08-25T12:00:45.524Z,56.48
2022-08-25T12:01:45.524Z,54.46
2022-08-25T12:02:45.528Z,53.29
2022-08-25T12:03:45.526Z,53.58
2022-08-25T12:04:45.752Z,54.69
2022-08-25T12:05:45.590Z,54.69
2022-08-25T12:06:45.531Z,55.47
2022-08-25T12:07:45.531Z,55.96
2022-08-25T12:08:45.535Z,54.69
2022-08-25T12:09:45.535Z,54.42
2022-08-25T12:10:45.535Z,54.44
2022-08-25T12:11:45.535Z,54.03
2022-08-25T12:12:45.541Z,53.93
2022-08-25T12:13:45.540Z,53.15
2022-08-25T12:14:45.675Z,53.15
2022-08-25T12:15:45.541Z,52.47
2022-08-25T12:16:45.578Z,53.05
2022-08-25T12:17:45.545Z,53.15
2022-08-25T12:18:46.318Z,52.86
2022-08-25T12:19:45.749Z,52.15
2022-08-25T12:22:45.554Z,54.69
2022-08-25T12:23:46.352Z,53.42
2022-08-25T12:24:48.020Z,53.42
2022-08-25T12:25:45.559Z,54.59
2022-08-25T12:26:46.151Z,54.79
2022-08-25T12:27:45.559Z,54.81
2022-08-25T12:28:45.562Z,54.71
2022-08-25T12:29:45.561Z,54.79
2022-08-25T12:30:45.625Z,55.47
2022-08-25T12:32:45.567Z,54.88
2022-08-25T12:33:45.770Z,54.71
2022-08-25T12:34:45.769Z,53.54
2022-08-25T12:35:45.571Z,53.47
2022-08-25T12:36:45.670Z,53.86
2022-08-25T12:37:45.574Z,53.76
2022-08-25T12:38:50.961Z,53.08
2022-08-25T12:39:45.642Z,51.20
2022-08-25T12:40:45.579Z,51.37
2022-08-25T12:41:45.630Z,52.34
2022-08-25T12:42:45.781Z,51.49
2022-08-25T12:43:45.582Z,51.66
2022-08-25T12:44:45.583Z,51.56
2022-08-25T12:45:45.634Z,52.37
2022-08-25T12:46:45.585Z,52.17
2022-08-25T12:47:45.589Z,51.98
2022-08-25T12:48:45.588Z,53.05
2022-08-25T12:49:45.591Z,51.39
2022-08-25T12:50:45.595Z,51.46
2022-08-25T12:51:48.806Z,51.46
2022-08-25T12:52:45.594Z,51.68
2022-08-25T12:53:45.597Z,51.49
2022-08-25T12:54:47.669Z,52.54
2022-08-25T12:55:45.599Z,52.25
2022-08-25T12:57:45.606Z,53.32
2022-08-25T12:58:59.971Z,52.25
2022-08-25T12:59:48.763Z,51.88
2022-08-25T13:00:45.855Z,51.59